sensor_id;sensor_type;location;lat;lon;timestamp;temperature;humidity
1812;DHT22;904;47.814;11.134;2023-11-21T00:02:19;9.00;69.80
1812;DHT22;904;47.814;11.134;2023-11-21T00:04:46;9.00;69.80
1812;DHT22;904;47.814;11.134;2023-11-21T00:07:13;8.90;69.70
1812;DHT22;904;47.814;11.134;2023-11-21T00:09:42;8.90;69.80
1812;DHT22;904;47.814;11.134;2023-11-21T00:12:08;8.90;69.70
1812;DHT22;904;47.814;11.134;2023-11-21T00:14:35;8.80;69.90
1812;DHT22;904;47.814;11.134;2023-11-21T00:17:04;8.80;70.10
1812;DHT22;904;47.814;11.134;2023-11-21T00:19:32;8.70;70.40
1812;DHT22;904;47.814;11.134;2023-11-21T00:22:00;8.70;70.70
1812;DHT22;904;47.814;11.134;2023-11-21T00:24:27;8.70;71.30
1812;DHT22;904;47.814;11.134;2023-11-21T00:26:54;8.70;71.10
1812;DHT22;904;47.814;11.134;2023-11-21T00:29:21;8.70;71.40
1812;DHT22;904;47.814;11.134;2023-11-21T00:31:48;8.70;71.10
1812;DHT22;904;47.814;11.134;2023-11-21T00:34:15;8.60;71.60
1812;DHT22;904;47.814;11.134;2023-11-21T00:36:44;8.60;72.00
1812;DHT22;904;47.814;11.134;2023-11-21T00:39:11;8.60;72.50
1812;DHT22;904;47.814;11.134;2023-11-21T00:41:38;8.60;73.00
1812;DHT22;904;47.814;11.134;2023-11-21T00:44:05;8.60;73.10
1812;DHT22;904;47.814;11.134;2023-11-21T00:46:32;8.70;73.20
1812;DHT22;904;47.814;11.134;2023-11-21T00:48:59;8.60;73.00
1812;DHT22;904;47.814;11.134;2023-11-21T00:51:26;8.60;73.30
1812;DHT22;904;47.814;11.134;2023-11-21T00:53:55;8.60;73.40
1812;DHT22;904;47.814;11.134;2023-11-21T00:56:23;8.60;73.50
1812;DHT22;904;47.814;11.134;2023-11-21T00:58:50;8.50;73.60
1812;DHT22;904;47.814;11.134;2023-11-21T01:01:18;8.50;74.10
1812;DHT22;904;47.814;11.134;2023-11-21T01:03:46;8.60;74.40
1812;DHT22;904;47.814;11.134;2023-11-21T01:06:13;8.50;74.60
1812;DHT22;904;47.814;11.134;2023-11-21T01:08:40;8.50;74.60
1812;DHT22;904;47.814;11.134;2023-11-21T01:11:09;8.50;74.70
1812;DHT22;904;47.814;11.134;2023-11-21T01:13:37;8.50;74.50
1812;DHT22;904;47.814;11.134;2023-11-21T01:16:05;8.40;74.90
1812;DHT22;904;47.814;11.134;2023-11-21T01:18:33;8.40;75.30
1812;DHT22;904;47.814;11.134;2023-11-21T01:21:00;8.40;75.00
1812;DHT22;904;47.814;11.134;2023-11-21T01:23:27;8.30;75.20
1812;DHT22;904;47.814;11.134;2023-11-21T01:25:56;8.30;75.00
1812;DHT22;904;47.814;11.134;2023-11-21T01:28:25;8.20;75.20
1812;DHT22;904;47.814;11.134;2023-11-21T01:30:52;8.10;75.70
1812;DHT22;904;47.814;11.134;2023-11-21T01:33:22;8.10;76.00
1812;DHT22;904;47.814;11.134;2023-11-21T01:35:50;8.00;76.10
1812;DHT22;904;47.814;11.134;2023-11-21T01:38:20;8.00;76.40
1812;DHT22;904;47.814;11.134;2023-11-21T01:40:48;8.00;76.70
1812;DHT22;904;47.814;11.134;2023-11-21T01:43:15;8.00;76.60
1812;DHT22;904;47.814;11.134;2023-11-21T01:45:43;8.00;77.00
1812;DHT22;904;47.814;11.134;2023-11-21T01:48:12;8.00;77.20
1812;DHT22;904;47.814;11.134;2023-11-21T01:50:40;8.10;77.20
1812;DHT22;904;47.814;11.134;2023-11-21T01:53:07;8.10;77.00
1812;DHT22;904;47.814;11.134;2023-11-21T01:55:34;8.20;77.10
1812;DHT22;904;47.814;11.134;2023-11-21T01:58:02;8.20;76.90
1812;DHT22;904;47.814;11.134;2023-11-21T02:00:29;8.30;76.90
1812;DHT22;904;47.814;11.134;2023-11-21T02:02:58;8.20;77.00
1812;DHT22;904;47.814;11.134;2023-11-21T02:05:25;8.30;77.30
1812;DHT22;904;47.814;11.134;2023-11-21T02:07:52;8.30;77.50
1812;DHT22;904;47.814;11.134;2023-11-21T02:10:19;8.40;77.10
1812;DHT22;904;47.814;11.134;2023-11-21T02:12:48;8.40;76.80
1812;DHT22;904;47.814;11.134;2023-11-21T02:15:17;8.40;76.70
1812;DHT22;904;47.814;11.134;2023-11-21T02:17:46;8.40;76.50
1812;DHT22;904;47.814;11.134;2023-11-21T02:20:18;8.40;76.20
1812;DHT22;904;47.814;11.134;2023-11-21T02:22:49;8.40;75.60
1812;DHT22;904;47.814;11.134;2023-11-21T02:25:18;8.50;75.40
1812;DHT22;904;47.814;11.134;2023-11-21T02:27:45;8.50;74.60
1812;DHT22;904;47.814;11.134;2023-11-21T02:30:14;8.50;74.50
1812;DHT22;904;47.814;11.134;2023-11-21T02:32:41;8.60;74.30
1812;DHT22;904;47.814;11.134;2023-11-21T02:35:09;8.70;73.60
1812;DHT22;904;47.814;11.134;2023-11-21T02:37:37;8.70;73.50
1812;DHT22;904;47.814;11.134;2023-11-21T02:40:09;8.80;73.40
1812;DHT22;904;47.814;11.134;2023-11-21T02:42:38;8.80;72.90
1812;DHT22;904;47.814;11.134;2023-11-21T02:45:07;8.90;72.60
1812;DHT22;904;47.814;11.134;2023-11-21T02:47:34;8.90;72.60
1812;DHT22;904;47.814;11.134;2023-11-21T02:50:01;9.00;72.90
1812;DHT22;904;47.814;11.134;2023-11-21T02:52:29;9.00;72.40
1812;DHT22;904;47.814;11.134;2023-11-21T02:54:58;9.00;71.70
1812;DHT22;904;47.814;11.134;2023-11-21T02:57:27;9.10;71.40
1812;DHT22;904;47.814;11.134;2023-11-21T02:59:54;9.10;71.10
1812;DHT22;904;47.814;11.134;2023-11-21T03:02:21;9.10;71.40
1812;DHT22;904;47.814;11.134;2023-11-21T03:04:49;9.10;71.80
1812;DHT22;904;47.814;11.134;2023-11-21T03:07:16;9.10;72.40
1812;DHT22;904;47.814;11.134;2023-11-21T03:09:45;9.10;72.80
1812;DHT22;904;47.814;11.134;2023-11-21T03:12:12;9.20;72.60
1812;DHT22;904;47.814;11.134;2023-11-21T03:14:40;9.10;72.40
1812;DHT22;904;47.814;11.134;2023-11-21T03:17:07;9.10;72.70
1812;DHT22;904;47.814;11.134;2023-11-21T03:19:34;9.10;72.90
1812;DHT22;904;47.814;11.134;2023-11-21T03:22:01;9.10;73.20
1812;DHT22;904;47.814;11.134;2023-11-21T03:24:29;9.10;73.60
1812;DHT22;904;47.814;11.134;2023-11-21T03:26:56;9.10;74.00
1812;DHT22;904;47.814;11.134;2023-11-21T03:29:23;9.00;74.30
1812;DHT22;904;47.814;11.134;2023-11-21T03:31:52;9.10;74.70
1812;DHT22;904;47.814;11.134;2023-11-21T03:34:24;9.10;74.80
1812;DHT22;904;47.814;11.134;2023-11-21T03:36:51;9.10;74.90
1812;DHT22;904;47.814;11.134;2023-11-21T03:39:20;9.10;75.10
1812;DHT22;904;47.814;11.134;2023-11-21T03:41:47;9.10;75.30
1812;DHT22;904;47.814;11.134;2023-11-21T03:44:15;9.10;75.30
1812;DHT22;904;47.814;11.134;2023-11-21T03:46:43;9.10;75.60
1812;DHT22;904;47.814;11.134;2023-11-21T03:49:12;9.10;75.60
1812;DHT22;904;47.814;11.134;2023-11-21T03:51:39;9.10;75.60
1812;DHT22;904;47.814;11.134;2023-11-21T03:54:06;9.10;75.70
1812;DHT22;904;47.814;11.134;2023-11-21T03:56:33;9.20;75.80
1812;DHT22;904;47.814;11.134;2023-11-21T03:59:00;9.20;75.60
1812;DHT22;904;47.814;11.134;2023-11-21T04:01:27;9.20;75.80
1812;DHT22;904;47.814;11.134;2023-11-21T04:03:54;9.20;75.80
1812;DHT22;904;47.814;11.134;2023-11-21T04:06:22;9.20;75.70
1812;DHT22;904;47.814;11.134;2023-11-21T04:08:49;9.20;75.80
1812;DHT22;904;47.814;11.134;2023-11-21T04:11:16;9.20;75.90
1812;DHT22;904;47.814;11.134;2023-11-21T04:13:43;9.20;75.60
1812;DHT22;904;47.814;11.134;2023-11-21T04:16:12;9.20;75.50
1812;DHT22;904;47.814;11.134;2023-11-21T04:18:39;9.20;75.40
1812;DHT22;904;47.814;11.134;2023-11-21T04:21:06;9.20;75.50
1812;DHT22;904;47.814;11.134;2023-11-21T04:23:36;9.10;75.70
1812;DHT22;904;47.814;11.134;2023-11-21T04:26:03;9.20;75.80
1812;DHT22;904;47.814;11.134;2023-11-21T04:28:30;9.20;75.80
1812;DHT22;904;47.814;11.134;2023-11-21T04:30:57;9.10;75.30
1812;DHT22;904;47.814;11.134;2023-11-21T04:33:24;9.10;75.20
1812;DHT22;904;47.814;11.134;2023-11-21T04:35:51;9.20;75.20
1812;DHT22;904;47.814;11.134;2023-11-21T04:38:18;9.20;75.50
1812;DHT22;904;47.814;11.134;2023-11-21T04:40:47;9.10;75.50
1812;DHT22;904;47.814;11.134;2023-11-21T04:43:14;9.10;75.90
1812;DHT22;904;47.814;11.134;2023-11-21T04:45:41;9.10;76.50
1812;DHT22;904;47.814;11.134;2023-11-21T04:48:08;9.10;76.70
1812;DHT22;904;47.814;11.134;2023-11-21T04:50:35;9.10;77.20
1812;DHT22;904;47.814;11.134;2023-11-21T04:53:02;9.10;77.70
1812;DHT22;904;47.814;11.134;2023-11-21T04:55:29;9.10;77.30
1812;DHT22;904;47.814;11.134;2023-11-21T04:57:58;9.10;77.30
1812;DHT22;904;47.814;11.134;2023-11-21T05:00:25;9.10;77.50
1812;DHT22;904;47.814;11.134;2023-11-21T05:02:52;9.10;77.50
1812;DHT22;904;47.814;11.134;2023-11-21T05:05:19;9.20;78.00
1812;DHT22;904;47.814;11.134;2023-11-21T05:07:46;9.10;78.20
1812;DHT22;904;47.814;11.134;2023-11-21T05:10:14;9.10;78.20
1812;DHT22;904;47.814;11.134;2023-11-21T05:12:42;9.10;78.20
1812;DHT22;904;47.814;11.134;2023-11-21T05:15:14;9.10;78.60
1812;DHT22;904;47.814;11.134;2023-11-21T05:17:41;9.10;78.50
1812;DHT22;904;47.814;11.134;2023-11-21T05:20:10;9.10;78.60
1812;DHT22;904;47.814;11.134;2023-11-21T05:22:39;9.10;78.80
1812;DHT22;904;47.814;11.134;2023-11-21T05:25:06;9.10;78.90
1812;DHT22;904;47.814;11.134;2023-11-21T05:27:34;9.10;79.20
1812;DHT22;904;47.814;11.134;2023-11-21T05:30:02;9.00;79.80
1812;DHT22;904;47.814;11.134;2023-11-21T05:32:32;9.00;80.10
1812;DHT22;904;47.814;11.134;2023-11-21T05:34:59;9.00;80.40
1812;DHT22;904;47.814;11.134;2023-11-21T05:37:26;9.00;79.90
1812;DHT22;904;47.814;11.134;2023-11-21T05:39:54;9.00;79.80
1812;DHT22;904;47.814;11.134;2023-11-21T05:42:22;9.00;79.50
1812;DHT22;904;47.814;11.134;2023-11-21T05:44:51;9.10;79.80
1812;DHT22;904;47.814;11.134;2023-11-21T05:47:18;9.10;79.80
1812;DHT22;904;47.814;11.134;2023-11-21T05:49:48;9.10;79.50
1812;DHT22;904;47.814;11.134;2023-11-21T05:52:17;9.10;79.10
1812;DHT22;904;47.814;11.134;2023-11-21T05:54:44;9.20;78.10
1812;DHT22;904;47.814;11.134;2023-11-21T05:57:11;9.20;77.90
1812;DHT22;904;47.814;11.134;2023-11-21T05:59:38;9.10;77.60
1812;DHT22;904;47.814;11.134;2023-11-21T06:02:05;9.10;77.20
1812;DHT22;904;47.814;11.134;2023-11-21T06:04:33;9.00;77.30
1812;DHT22;904;47.814;11.134;2023-11-21T06:07:01;9.10;77.00
1812;DHT22;904;47.814;11.134;2023-11-21T06:09:30;9.10;77.00
1812;DHT22;904;47.814;11.134;2023-11-21T06:11:57;9.10;76.70
1812;DHT22;904;47.814;11.134;2023-11-21T06:14:24;9.10;77.00
1812;DHT22;904;47.814;11.134;2023-11-21T06:16:51;9.10;76.70
1812;DHT22;904;47.814;11.134;2023-11-21T06:19:18;9.10;76.60
1812;DHT22;904;47.814;11.134;2023-11-21T06:21:46;9.10;76.80
1812;DHT22;904;47.814;11.134;2023-11-21T06:24:13;9.10;76.60
1812;DHT22;904;47.814;11.134;2023-11-21T06:26:41;9.20;76.60
1812;DHT22;904;47.814;11.134;2023-11-21T06:29:07;9.20;76.50
1812;DHT22;904;47.814;11.134;2023-11-21T06:31:34;9.20;76.70
1812;DHT22;904;47.814;11.134;2023-11-21T06:34:02;9.20;76.90
1812;DHT22;904;47.814;11.134;2023-11-21T06:36:29;9.20;76.70
1812;DHT22;904;47.814;11.134;2023-11-21T06:38:56;9.20;76.60
1812;DHT22;904;47.814;11.134;2023-11-21T06:41:24;9.20;76.70
1812;DHT22;904;47.814;11.134;2023-11-21T06:43:51;9.20;76.80
1812;DHT22;904;47.814;11.134;2023-11-21T06:46:18;9.20;76.50
1812;DHT22;904;47.814;11.134;2023-11-21T06:48:45;9.20;76.40
1812;DHT22;904;47.814;11.134;2023-11-21T06:51:15;9.20;76.70
1812;DHT22;904;47.814;11.134;2023-11-21T06:53:45;9.20;76.70
1812;DHT22;904;47.814;11.134;2023-11-21T06:56:17;9.20;76.70
1812;DHT22;904;47.814;11.134;2023-11-21T06:58:46;9.20;76.60
1812;DHT22;904;47.814;11.134;2023-11-21T07:01:13;9.20;76.30
1812;DHT22;904;47.814;11.134;2023-11-21T07:03:41;9.20;76.40
1812;DHT22;904;47.814;11.134;2023-11-21T07:06:11;9.20;76.80
1812;DHT22;904;47.814;11.134;2023-11-21T07:08:38;9.20;76.30
1812;DHT22;904;47.814;11.134;2023-11-21T07:11:05;9.20;76.50
1812;DHT22;904;47.814;11.134;2023-11-21T07:13:32;9.20;76.80
1812;DHT22;904;47.814;11.134;2023-11-21T07:16:01;9.20;77.10
1812;DHT22;904;47.814;11.134;2023-11-21T07:18:28;9.20;76.60
1812;DHT22;904;47.814;11.134;2023-11-21T07:20:56;9.30;76.90
1812;DHT22;904;47.814;11.134;2023-11-21T07:23:24;9.30;77.30
1812;DHT22;904;47.814;11.134;2023-11-21T07:25:51;9.30;77.10
1812;DHT22;904;47.814;11.134;2023-11-21T07:28:18;9.40;77.60
1812;DHT22;904;47.814;11.134;2023-11-21T07:30:45;9.40;77.50
1812;DHT22;904;47.814;11.134;2023-11-21T07:33:13;9.40;76.70
1812;DHT22;904;47.814;11.134;2023-11-21T07:35:40;9.40;75.60
1812;DHT22;904;47.814;11.134;2023-11-21T07:38:07;9.40;75.90
1812;DHT22;904;47.814;11.134;2023-11-21T07:40:34;9.40;76.20
1812;DHT22;904;47.814;11.134;2023-11-21T07:43:01;9.40;76.40
1812;DHT22;904;47.814;11.134;2023-11-21T07:45:28;9.50;76.40
1812;DHT22;904;47.814;11.134;2023-11-21T07:47:55;9.50;76.70
1812;DHT22;904;47.814;11.134;2023-11-21T07:50:24;9.50;76.80
1812;DHT22;904;47.814;11.134;2023-11-21T07:52:52;9.60;76.60
1812;DHT22;904;47.814;11.134;2023-11-21T07:55:20;9.60;76.50
1812;DHT22;904;47.814;11.134;2023-11-21T07:57:47;9.60;76.10
1812;DHT22;904;47.814;11.134;2023-11-21T08:00:14;9.60;75.90
1812;DHT22;904;47.814;11.134;2023-11-21T08:02:41;9.70;76.00
1812;DHT22;904;47.814;11.134;2023-11-21T08:05:11;9.70;75.70
1812;DHT22;904;47.814;11.134;2023-11-21T08:07:39;9.70;75.50
1812;DHT22;904;47.814;11.134;2023-11-21T08:10:08;9.80;75.40
1812;DHT22;904;47.814;11.134;2023-11-21T08:12:36;9.80;75.10
1812;DHT22;904;47.814;11.134;2023-11-21T08:15:05;9.80;75.50
1812;DHT22;904;47.814;11.134;2023-11-21T08:17:33;9.80;75.60
1812;DHT22;904;47.814;11.134;2023-11-21T08:20:00;9.80;75.60
1812;DHT22;904;47.814;11.134;2023-11-21T08:22:29;9.80;75.30
1812;DHT22;904;47.814;11.134;2023-11-21T08:24:58;9.80;74.50
1812;DHT22;904;47.814;11.134;2023-11-21T08:27:25;9.80;73.80
1812;DHT22;904;47.814;11.134;2023-11-21T08:29:52;9.70;74.10
1812;DHT22;904;47.814;11.134;2023-11-21T08:32:19;9.80;74.80
1812;DHT22;904;47.814;11.134;2023-11-21T08:34:45;9.80;75.20
1812;DHT22;904;47.814;11.134;2023-11-21T08:37:16;9.80;75.60
1812;DHT22;904;47.814;11.134;2023-11-21T08:39:44;9.90;75.60
1812;DHT22;904;47.814;11.134;2023-11-21T08:42:12;9.90;75.00
1812;DHT22;904;47.814;11.134;2023-11-21T08:44:40;10.00;74.00
1812;DHT22;904;47.814;11.134;2023-11-21T08:47:07;10.00;74.40
1812;DHT22;904;47.814;11.134;2023-11-21T08:49:34;10.10;73.70
1812;DHT22;904;47.814;11.134;2023-11-21T08:52:01;10.20;72.80
1812;DHT22;904;47.814;11.134;2023-11-21T08:54:28;10.20;72.30
1812;DHT22;904;47.814;11.134;2023-11-21T08:56:57;10.30;72.20
1812;DHT22;904;47.814;11.134;2023-11-21T08:59:26;10.30;72.30
1812;DHT22;904;47.814;11.134;2023-11-21T09:01:53;10.30;72.30
1812;DHT22;904;47.814;11.134;2023-11-21T09:04:20;10.30;71.80
1812;DHT22;904;47.814;11.134;2023-11-21T09:06:47;10.30;71.30
1812;DHT22;904;47.814;11.134;2023-11-21T09:09:13;10.30;71.30
1812;DHT22;904;47.814;11.134;2023-11-21T09:11:40;10.30;70.80
1812;DHT22;904;47.814;11.134;2023-11-21T09:14:10;10.40;71.00
1812;DHT22;904;47.814;11.134;2023-11-21T09:16:39;10.40;70.60
1812;DHT22;904;47.814;11.134;2023-11-21T09:19:07;10.40;70.70
1812;DHT22;904;47.814;11.134;2023-11-21T09:21:33;10.40;69.70
1812;DHT22;904;47.814;11.134;2023-11-21T09:24:01;10.40;70.20
1812;DHT22;904;47.814;11.134;2023-11-21T09:26:29;10.40;70.30
1812;DHT22;904;47.814;11.134;2023-11-21T09:28:56;10.40;70.70
1812;DHT22;904;47.814;11.134;2023-11-21T09:31:23;10.40;70.30
1812;DHT22;904;47.814;11.134;2023-11-21T09:33:51;10.40;70.10
1812;DHT22;904;47.814;11.134;2023-11-21T09:36:20;10.40;70.20
1812;DHT22;904;47.814;11.134;2023-11-21T09:38:52;10.50;70.40
1812;DHT22;904;47.814;11.134;2023-11-21T09:41:26;10.50;70.60
1812;DHT22;904;47.814;11.134;2023-11-21T09:43:57;10.50;70.80
1812;DHT22;904;47.814;11.134;2023-11-21T09:46:28;10.60;70.60
1812;DHT22;904;47.814;11.134;2023-11-21T09:48:58;10.70;70.80
1812;DHT22;904;47.814;11.134;2023-11-21T09:51:27;10.70;70.70
1812;DHT22;904;47.814;11.134;2023-11-21T09:53:59;10.80;71.70
1812;DHT22;904;47.814;11.134;2023-11-21T09:56:32;10.90;73.30
1812;DHT22;904;47.814;11.134;2023-11-21T09:59:02;11.00;71.80
1812;DHT22;904;47.814;11.134;2023-11-21T10:01:35;11.10;71.70
1812;DHT22;904;47.814;11.134;2023-11-21T10:04:04;11.10;70.90
1812;DHT22;904;47.814;11.134;2023-11-21T10:06:38;11.20;70.80
1812;DHT22;904;47.814;11.134;2023-11-21T10:09:06;11.20;71.20
1812;DHT22;904;47.814;11.134;2023-11-21T10:11:40;11.20;72.30
1812;DHT22;904;47.814;11.134;2023-11-21T10:14:08;11.20;72.80
1812;DHT22;904;47.814;11.134;2023-11-21T10:16:38;11.30;72.90
1812;DHT22;904;47.814;11.134;2023-11-21T10:19:09;11.30;72.40
1812;DHT22;904;47.814;11.134;2023-11-21T10:21:37;11.30;71.70
1812;DHT22;904;47.814;11.134;2023-11-21T10:24:05;11.30;72.20
1812;DHT22;904;47.814;11.134;2023-11-21T10:26:33;11.30;71.80
1812;DHT22;904;47.814;11.134;2023-11-21T10:29:02;11.30;70.20
1812;DHT22;904;47.814;11.134;2023-11-21T10:31:30;11.30;70.30
1812;DHT22;904;47.814;11.134;2023-11-21T10:34:15;11.30;70.30
1812;DHT22;904;47.814;11.134;2023-11-21T10:36:42;11.40;70.30
1812;DHT22;904;47.814;11.134;2023-11-21T10:39:09;11.40;69.90
1812;DHT22;904;47.814;11.134;2023-11-21T10:41:43;11.50;70.10
1812;DHT22;904;47.814;11.134;2023-11-21T10:44:11;11.50;69.90
1812;DHT22;904;47.814;11.134;2023-11-21T10:46:40;11.50;70.10
1812;DHT22;904;47.814;11.134;2023-11-21T10:49:10;11.50;68.30
1812;DHT22;904;47.814;11.134;2023-11-21T10:51:43;11.50;68.00
1812;DHT22;904;47.814;11.134;2023-11-21T10:54:10;11.50;67.40
1812;DHT22;904;47.814;11.134;2023-11-21T10:56:39;11.50;67.50
1812;DHT22;904;47.814;11.134;2023-11-21T10:59:10;11.50;67.30
1812;DHT22;904;47.814;11.134;2023-11-21T11:01:41;11.50;66.60
1812;DHT22;904;47.814;11.134;2023-11-21T11:04:09;11.50;66.60
1812;DHT22;904;47.814;11.134;2023-11-21T11:06:43;11.50;65.00
1812;DHT22;904;47.814;11.134;2023-11-21T11:09:12;11.50;65.80
1812;DHT22;904;47.814;11.134;2023-11-21T11:11:40;11.50;66.00
1812;DHT22;904;47.814;11.134;2023-11-21T11:14:11;11.50;65.60
1812;DHT22;904;47.814;11.134;2023-11-21T11:16:42;11.50;65.30
1812;DHT22;904;47.814;11.134;2023-11-21T11:19:09;11.50;65.20
1812;DHT22;904;47.814;11.134;2023-11-21T11:21:48;11.60;64.80
1812;DHT22;904;47.814;11.134;2023-11-21T11:24:36;11.60;64.20
1812;DHT22;904;47.814;11.134;2023-11-21T11:27:11;11.70;64.40
1812;DHT22;904;47.814;11.134;2023-11-21T11:29:48;11.90;65.20
1812;DHT22;904;47.814;11.134;2023-11-21T11:32:33;12.00;66.50
1812;DHT22;904;47.814;11.134;2023-11-21T11:35:10;12.30;65.80
1812;DHT22;904;47.814;11.134;2023-11-21T11:37:41;12.60;64.90
1812;DHT22;904;47.814;11.134;2023-11-21T11:40:11;12.90;63.80
1812;DHT22;904;47.814;11.134;2023-11-21T11:42:38;13.10;62.50
1812;DHT22;904;47.814;11.134;2023-11-21T11:45:18;13.40;61.40
1812;DHT22;904;47.814;11.134;2023-11-21T11:47:48;13.60;59.70
1812;DHT22;904;47.814;11.134;2023-11-21T11:50:15;13.60;59.30
1812;DHT22;904;47.814;11.134;2023-11-21T11:52:48;13.50;59.10
1812;DHT22;904;47.814;11.134;2023-11-21T11:55:17;13.40;59.00
1812;DHT22;904;47.814;11.134;2023-11-21T11:57:46;13.30;59.30
1812;DHT22;904;47.814;11.134;2023-11-21T12:00:15;13.20;59.10
1812;DHT22;904;47.814;11.134;2023-11-21T12:02:48;13.20;59.10
1812;DHT22;904;47.814;11.134;2023-11-21T12:05:16;13.10;59.10
1812;DHT22;904;47.814;11.134;2023-11-21T12:07:47;13.00;59.60
1812;DHT22;904;47.814;11.134;2023-11-21T12:10:16;12.90;59.60
1812;DHT22;904;47.814;11.134;2023-11-21T12:12:45;12.70;59.10
1812;DHT22;904;47.814;11.134;2023-11-21T12:15:13;12.60;59.70
1812;DHT22;904;47.814;11.134;2023-11-21T12:17:42;12.50;60.00
1812;DHT22;904;47.814;11.134;2023-11-21T12:20:10;12.40;60.80
1812;DHT22;904;47.814;11.134;2023-11-21T12:22:45;12.30;61.10
1812;DHT22;904;47.814;11.134;2023-11-21T12:25:16;12.30;61.20
1812;DHT22;904;47.814;11.134;2023-11-21T12:27:44;12.20;61.40
1812;DHT22;904;47.814;11.134;2023-11-21T12:30:13;12.20;61.40
1812;DHT22;904;47.814;11.134;2023-11-21T12:32:42;12.20;61.60
1812;DHT22;904;47.814;11.134;2023-11-21T12:35:10;12.20;62.20
1812;DHT22;904;47.814;11.134;2023-11-21T12:37:37;12.20;62.60
1812;DHT22;904;47.814;11.134;2023-11-21T12:40:07;12.10;63.20
1812;DHT22;904;47.814;11.134;2023-11-21T12:42:39;12.20;62.70
1812;DHT22;904;47.814;11.134;2023-11-21T12:45:08;12.20;63.50
1812;DHT22;904;47.814;11.134;2023-11-21T12:47:41;12.30;64.10
1812;DHT22;904;47.814;11.134;2023-11-21T12:50:08;12.40;63.50
1812;DHT22;904;47.814;11.134;2023-11-21T12:52:41;12.40;63.10
1812;DHT22;904;47.814;11.134;2023-11-21T12:55:10;12.40;62.60
1812;DHT22;904;47.814;11.134;2023-11-21T12:57:43;12.40;62.20
1812;DHT22;904;47.814;11.134;2023-11-21T13:00:12;12.40;62.40
1812;DHT22;904;47.814;11.134;2023-11-21T13:02:51;12.40;62.80
1812;DHT22;904;47.814;11.134;2023-11-21T13:05:24;12.40;63.30
1812;DHT22;904;47.814;11.134;2023-11-21T13:07:52;12.30;63.60
1812;DHT22;904;47.814;11.134;2023-11-21T13:10:21;12.30;63.70
1812;DHT22;904;47.814;11.134;2023-11-21T13:12:52;12.30;63.00
1812;DHT22;904;47.814;11.134;2023-11-21T13:15:21;12.30;62.70
1812;DHT22;904;47.814;11.134;2023-11-21T13:17:48;12.20;63.10
1812;DHT22;904;47.814;11.134;2023-11-21T13:20:16;12.10;63.60
1812;DHT22;904;47.814;11.134;2023-11-21T13:22:49;12.10;63.90
1812;DHT22;904;47.814;11.134;2023-11-21T13:25:20;12.10;64.90
1812;DHT22;904;47.814;11.134;2023-11-21T13:27:47;12.10;65.50
1812;DHT22;904;47.814;11.134;2023-11-21T13:30:16;12.00;65.80
1812;DHT22;904;47.814;11.134;2023-11-21T13:32:44;12.00;66.60
1812;DHT22;904;47.814;11.134;2023-11-21T13:35:12;12.00;67.30
1812;DHT22;904;47.814;11.134;2023-11-21T13:37:50;12.00;67.50
1812;DHT22;904;47.814;11.134;2023-11-21T13:40:21;12.00;67.50
1812;DHT22;904;47.814;11.134;2023-11-21T13:42:52;12.00;66.20
1812;DHT22;904;47.814;11.134;2023-11-21T13:45:26;12.00;65.50
1812;DHT22;904;47.814;11.134;2023-11-21T13:47:54;12.00;64.20
1812;DHT22;904;47.814;11.134;2023-11-21T13:50:23;11.90;63.90
1812;DHT22;904;47.814;11.134;2023-11-21T13:52:54;11.90;64.20
1812;DHT22;904;47.814;11.134;2023-11-21T13:55:22;11.80;64.30
1812;DHT22;904;47.814;11.134;2023-11-21T13:57:51;11.70;63.90
1812;DHT22;904;47.814;11.134;2023-11-21T14:00:18;11.60;64.00
1812;DHT22;904;47.814;11.134;2023-11-21T14:03:04;11.60;64.30
1812;DHT22;904;47.814;11.134;2023-11-21T14:05:36;11.70;65.00
1812;DHT22;904;47.814;11.134;2023-11-21T14:08:05;11.80;65.40
1812;DHT22;904;47.814;11.134;2023-11-21T14:10:32;11.80;65.80
1812;DHT22;904;47.814;11.134;2023-11-21T14:13:06;11.90;66.10
1812;DHT22;904;47.814;11.134;2023-11-21T14:15:33;11.90;65.90
1812;DHT22;904;47.814;11.134;2023-11-21T14:18:05;11.80;65.60
1812;DHT22;904;47.814;11.134;2023-11-21T14:20:35;11.80;65.80
1812;DHT22;904;47.814;11.134;2023-11-21T14:23:03;11.60;66.10
1812;DHT22;904;47.814;11.134;2023-11-21T14:25:31;11.50;66.40
1812;DHT22;904;47.814;11.134;2023-11-21T14:27:59;11.40;66.70
1812;DHT22;904;47.814;11.134;2023-11-21T14:30:26;11.40;65.80
1812;DHT22;904;47.814;11.134;2023-11-21T14:32:54;11.30;66.90
1812;DHT22;904;47.814;11.134;2023-11-21T14:35:23;11.40;68.20
1812;DHT22;904;47.814;11.134;2023-11-21T14:37:50;11.50;68.00
1812;DHT22;904;47.814;11.134;2023-11-21T14:40:17;11.50;67.70
1812;DHT22;904;47.814;11.134;2023-11-21T14:42:47;11.50;67.40
1812;DHT22;904;47.814;11.134;2023-11-21T14:45:14;11.50;67.70
1812;DHT22;904;47.814;11.134;2023-11-21T14:47:45;11.40;67.30
1812;DHT22;904;47.814;11.134;2023-11-21T14:50:20;11.40;68.10
1812;DHT22;904;47.814;11.134;2023-11-21T14:53:02;11.30;66.30
1812;DHT22;904;47.814;11.134;2023-11-21T14:55:32;11.20;66.50
1812;DHT22;904;47.814;11.134;2023-11-21T14:58:07;11.10;66.30
1812;DHT22;904;47.814;11.134;2023-11-21T15:00:39;10.90;67.10
1812;DHT22;904;47.814;11.134;2023-11-21T15:03:11;10.90;67.50
1812;DHT22;904;47.814;11.134;2023-11-21T15:05:50;10.80;67.90
1812;DHT22;904;47.814;11.134;2023-11-21T15:08:17;10.80;68.60
1812;DHT22;904;47.814;11.134;2023-11-21T15:10:52;10.70;67.50
1812;DHT22;904;47.814;11.134;2023-11-21T15:13:19;10.60;67.70
1812;DHT22;904;47.814;11.134;2023-11-21T15:15:47;10.50;68.50
1812;DHT22;904;47.814;11.134;2023-11-21T15:18:13;10.50;68.90
1812;DHT22;904;47.814;11.134;2023-11-21T15:20:40;10.40;69.60
1812;DHT22;904;47.814;11.134;2023-11-21T15:23:09;10.30;70.20
1812;DHT22;904;47.814;11.134;2023-11-21T15:25:39;10.30;70.90
1812;DHT22;904;47.814;11.134;2023-11-21T15:28:06;10.30;71.90
1812;DHT22;904;47.814;11.134;2023-11-21T15:30:33;10.20;71.50
1812;DHT22;904;47.814;11.134;2023-11-21T15:33:01;10.20;72.00
1812;DHT22;904;47.814;11.134;2023-11-21T15:35:29;10.20;72.80
1812;DHT22;904;47.814;11.134;2023-11-21T15:37:57;10.20;73.20
1812;DHT22;904;47.814;11.134;2023-11-21T15:40:25;10.10;73.60
1812;DHT22;904;47.814;11.134;2023-11-21T15:42:53;10.00;74.10
1812;DHT22;904;47.814;11.134;2023-11-21T15:45:20;9.90;75.60
1812;DHT22;904;47.814;11.134;2023-11-21T15:47:50;9.90;76.30
1812;DHT22;904;47.814;11.134;2023-11-21T15:50:17;9.80;77.40
1812;DHT22;904;47.814;11.134;2023-11-21T15:52:44;9.70;77.30
1812;DHT22;904;47.814;11.134;2023-11-21T15:55:13;9.60;78.20
1812;DHT22;904;47.814;11.134;2023-11-21T15:57:40;9.60;78.20
1812;DHT22;904;47.814;11.134;2023-11-21T16:00:10;9.60;78.70
1812;DHT22;904;47.814;11.134;2023-11-21T16:02:42;9.60;78.80
1812;DHT22;904;47.814;11.134;2023-11-21T16:05:10;9.50;79.30
1812;DHT22;904;47.814;11.134;2023-11-21T16:07:39;9.50;79.60
1812;DHT22;904;47.814;11.134;2023-11-21T16:10:07;9.50;79.80
1812;DHT22;904;47.814;11.134;2023-11-21T16:12:36;9.50;79.80
1812;DHT22;904;47.814;11.134;2023-11-21T16:15:06;9.50;80.10
1812;DHT22;904;47.814;11.134;2023-11-21T16:17:35;9.40;80.10
1812;DHT22;904;47.814;11.134;2023-11-21T16:20:03;9.50;80.10
1812;DHT22;904;47.814;11.134;2023-11-21T16:22:34;9.40;80.10